Terminal Aerodrome Forecast
Issued by NWS

Home | Current Version | Previous Version | Graphics & Text | Print | Product List | Glossary On
Versions: 1 2 3 4 5 6 7 8 9 10 11 12 13 14 15 16 17 18 19 20 21 22
000
FTUS42 KMHX 281726 AAH
TAFPGV
TAF AMD
KPGV 281726Z 2817/2918 09007KT P6SM BKN035 BKN070
     FM290000 12006KT P6SM -SHRA BKN100
     FM290700 VRB04KT 6SM -SHRA OVC020
     FM291400 10007KT 6SM SHRA OVC035
      AMD LTD TO CLD VIS AND WIND=

USA.gov is the U.S. government's official web portal to all federal, state and local government web resources and services.